sensor_id;sensor_type;location;lat;lon;timestamp;temperature;humidity
55313;DHT22;46892;45.668;11.756;2022-11-25T00:01:41;5.00;81.60
55313;DHT22;46892;45.668;11.756;2022-11-25T00:04:07;5.00;81.50
55313;DHT22;46892;45.668;11.756;2022-11-25T00:06:34;5.00;81.20
55313;DHT22;46892;45.668;11.756;2022-11-25T00:09:05;5.20;80.30
55313;DHT22;46892;45.668;11.756;2022-11-25T00:11:34;5.40;79.50
55313;DHT22;46892;45.668;11.756;2022-11-25T00:14:00;5.40;79.40
55313;DHT22;46892;45.668;11.756;2022-11-25T00:16:26;5.40;79.70
55313;DHT22;46892;45.668;11.756;2022-11-25T00:18:53;5.40;80.60
55313;DHT22;46892;45.668;11.756;2022-11-25T00:21:24;5.40;80.70
55313;DHT22;46892;45.668;11.756;2022-11-25T00:23:52;5.40;80.70
55313;DHT22;46892;45.668;11.756;2022-11-25T00:26:18;5.40;81.00
55313;DHT22;46892;45.668;11.756;2022-11-25T00:28:45;5.40;81.70
55313;DHT22;46892;45.668;11.756;2022-11-25T00:31:13;5.40;81.40
55313;DHT22;46892;45.668;11.756;2022-11-25T00:33:39;5.40;81.30
55313;DHT22;46892;45.668;11.756;2022-11-25T00:36:28;5.50;80.20
55313;DHT22;46892;45.668;11.756;2022-11-25T00:38:58;5.50;81.00
55313;DHT22;46892;45.668;11.756;2022-11-25T00:41:25;5.50;80.90
55313;DHT22;46892;45.668;11.756;2022-11-25T00:44:10;5.50;80.90
55313;DHT22;46892;45.668;11.756;2022-11-25T00:46:54;5.50;81.10
55313;DHT22;46892;45.668;11.756;2022-11-25T00:49:20;5.40;80.40
55313;DHT22;46892;45.668;11.756;2022-11-25T00:51:46;5.30;80.30
55313;DHT22;46892;45.668;11.756;2022-11-25T00:54:12;5.20;80.10
55313;DHT22;46892;45.668;11.756;2022-11-25T00:56:38;5.30;79.90
55313;DHT22;46892;45.668;11.756;2022-11-25T00:59:03;5.30;79.80
55313;DHT22;46892;45.668;11.756;2022-11-25T01:01:29;5.30;79.70
55313;DHT22;46892;45.668;11.756;2022-11-25T01:03:55;5.30;79.70
55313;DHT22;46892;45.668;11.756;2022-11-25T01:06:21;5.30;79.60
55313;DHT22;46892;45.668;11.756;2022-11-25T01:08:47;5.40;79.70
55313;DHT22;46892;45.668;11.756;2022-11-25T01:11:15;5.40;79.70
55313;DHT22;46892;45.668;11.756;2022-11-25T01:13:41;5.50;79.60
55313;DHT22;46892;45.668;11.756;2022-11-25T01:16:09;5.50;79.50
55313;DHT22;46892;45.668;11.756;2022-11-25T01:18:35;5.60;79.60
55313;DHT22;46892;45.668;11.756;2022-11-25T01:21:17;5.70;79.20
55313;DHT22;46892;45.668;11.756;2022-11-25T01:23:43;5.90;78.60
55313;DHT22;46892;45.668;11.756;2022-11-25T01:26:13;6.00;78.30
55313;DHT22;46892;45.668;11.756;2022-11-25T01:28:40;6.00;77.70
55313;DHT22;46892;45.668;11.756;2022-11-25T01:31:13;6.00;77.60
55313;DHT22;46892;45.668;11.756;2022-11-25T01:33:39;5.80;78.00
55313;DHT22;46892;45.668;11.756;2022-11-25T01:36:08;5.80;78.30
55313;DHT22;46892;45.668;11.756;2022-11-25T01:38:35;5.90;78.10
55313;DHT22;46892;45.668;11.756;2022-11-25T01:41:01;5.80;78.30
55313;DHT22;46892;45.668;11.756;2022-11-25T01:43:28;5.80;78.50
55313;DHT22;46892;45.668;11.756;2022-11-25T01:46:27;5.70;78.50
55313;DHT22;46892;45.668;11.756;2022-11-25T01:48:58;5.70;78.40
55313;DHT22;46892;45.668;11.756;2022-11-25T01:51:35;5.60;78.50
55313;DHT22;46892;45.668;11.756;2022-11-25T01:54:05;5.60;78.40
55313;DHT22;46892;45.668;11.756;2022-11-25T01:56:36;5.80;78.90
55313;DHT22;46892;45.668;11.756;2022-11-25T01:59:03;5.80;80.30
55313;DHT22;46892;45.668;11.756;2022-11-25T02:01:30;5.90;80.20
55313;DHT22;46892;45.668;11.756;2022-11-25T02:03:56;5.90;79.90
55313;DHT22;46892;45.668;11.756;2022-11-25T02:06:29;5.80;79.90
55313;DHT22;46892;45.668;11.756;2022-11-25T02:09:02;5.80;80.50
55313;DHT22;46892;45.668;11.756;2022-11-25T02:11:30;5.70;80.70
55313;DHT22;46892;45.668;11.756;2022-11-25T02:13:57;5.80;81.00
55313;DHT22;46892;45.668;11.756;2022-11-25T02:16:24;5.80;80.70
55313;DHT22;46892;45.668;11.756;2022-11-25T02:18:50;5.60;80.20
55313;DHT22;46892;45.668;11.756;2022-11-25T02:21:21;5.60;80.80
55313;DHT22;46892;45.668;11.756;2022-11-25T02:26:41;5.50;80.70
55313;DHT22;46892;45.668;11.756;2022-11-25T02:29:07;5.40;81.50
55313;DHT22;46892;45.668;11.756;2022-11-25T02:31:33;5.40;81.30
55313;DHT22;46892;45.668;11.756;2022-11-25T02:33:59;5.30;81.90
55313;DHT22;46892;45.668;11.756;2022-11-25T02:36:25;5.40;82.90
55313;DHT22;46892;45.668;11.756;2022-11-25T02:38:55;5.50;83.10
55313;DHT22;46892;45.668;11.756;2022-11-25T02:43:57;5.80;81.80
55313;DHT22;46892;45.668;11.756;2022-11-25T02:46:25;5.80;81.40
55313;DHT22;46892;45.668;11.756;2022-11-25T02:48:52;5.70;81.30
55313;DHT22;46892;45.668;11.756;2022-11-25T02:51:21;5.60;80.50
55313;DHT22;46892;45.668;11.756;2022-11-25T02:53:47;5.70;81.90
55313;DHT22;46892;45.668;11.756;2022-11-25T02:56:14;5.60;81.00
55313;DHT22;46892;45.668;11.756;2022-11-25T02:58:41;5.60;81.30
55313;DHT22;46892;45.668;11.756;2022-11-25T03:01:07;5.50;82.00
55313;DHT22;46892;45.668;11.756;2022-11-25T03:03:33;5.50;82.70
55313;DHT22;46892;45.668;11.756;2022-11-25T03:05:59;5.60;82.60
55313;DHT22;46892;45.668;11.756;2022-11-25T03:08:25;5.70;82.60
55313;DHT22;46892;45.668;11.756;2022-11-25T03:10:50;5.70;82.10
55313;DHT22;46892;45.668;11.756;2022-11-25T03:13:16;5.60;81.90
55313;DHT22;46892;45.668;11.756;2022-11-25T03:15:42;5.50;82.60
55313;DHT22;46892;45.668;11.756;2022-11-25T03:18:08;5.40;82.10
55313;DHT22;46892;45.668;11.756;2022-11-25T03:20:34;5.30;82.00
55313;DHT22;46892;45.668;11.756;2022-11-25T03:23:00;5.30;82.00
55313;DHT22;46892;45.668;11.756;2022-11-25T03:25:27;5.30;82.30
55313;DHT22;46892;45.668;11.756;2022-11-25T03:27:53;5.20;82.60
55313;DHT22;46892;45.668;11.756;2022-11-25T03:30:21;5.00;82.70
55313;DHT22;46892;45.668;11.756;2022-11-25T03:32:47;5.10;82.70
55313;DHT22;46892;45.668;11.756;2022-11-25T03:35:14;5.00;82.90
55313;DHT22;46892;45.668;11.756;2022-11-25T03:37:40;5.00;83.00
55313;DHT22;46892;45.668;11.756;2022-11-25T03:40:07;5.10;83.30
55313;DHT22;46892;45.668;11.756;2022-11-25T03:42:34;5.10;83.80
55313;DHT22;46892;45.668;11.756;2022-11-25T03:45:00;5.20;83.60
55313;DHT22;46892;45.668;11.756;2022-11-25T03:47:26;5.20;83.00
55313;DHT22;46892;45.668;11.756;2022-11-25T03:49:52;5.20;82.70
55313;DHT22;46892;45.668;11.756;2022-11-25T03:52:18;5.20;82.90
55313;DHT22;46892;45.668;11.756;2022-11-25T03:54:43;5.20;82.80
55313;DHT22;46892;45.668;11.756;2022-11-25T03:57:09;5.20;83.10
55313;DHT22;46892;45.668;11.756;2022-11-25T03:59:35;5.30;82.60
55313;DHT22;46892;45.668;11.756;2022-11-25T04:02:01;5.30;82.30
55313;DHT22;46892;45.668;11.756;2022-11-25T04:04:27;5.30;82.20
55313;DHT22;46892;45.668;11.756;2022-11-25T04:06:52;5.30;82.00
55313;DHT22;46892;45.668;11.756;2022-11-25T04:09:18;5.30;81.90
55313;DHT22;46892;45.668;11.756;2022-11-25T04:11:44;5.20;82.70
55313;DHT22;46892;45.668;11.756;2022-11-25T04:14:29;5.10;82.80
55313;DHT22;46892;45.668;11.756;2022-11-25T04:16:54;5.10;82.90
55313;DHT22;46892;45.668;11.756;2022-11-25T04:19:20;5.20;82.60
55313;DHT22;46892;45.668;11.756;2022-11-25T04:21:46;5.20;82.40
55313;DHT22;46892;45.668;11.756;2022-11-25T04:24:12;5.20;82.30
55313;DHT22;46892;45.668;11.756;2022-11-25T04:26:37;5.20;82.40
55313;DHT22;46892;45.668;11.756;2022-11-25T04:29:03;5.10;82.70
55313;DHT22;46892;45.668;11.756;2022-11-25T04:31:29;5.10;82.90
55313;DHT22;46892;45.668;11.756;2022-11-25T04:33:54;5.00;82.90
55313;DHT22;46892;45.668;11.756;2022-11-25T04:36:20;5.00;83.10
55313;DHT22;46892;45.668;11.756;2022-11-25T04:38:46;5.00;83.20
55313;DHT22;46892;45.668;11.756;2022-11-25T04:41:12;5.20;82.50
55313;DHT22;46892;45.668;11.756;2022-11-25T04:43:38;5.20;82.30
55313;DHT22;46892;45.668;11.756;2022-11-25T04:46:04;5.20;82.30
55313;DHT22;46892;45.668;11.756;2022-11-25T04:48:30;5.10;82.00
55313;DHT22;46892;45.668;11.756;2022-11-25T04:50:56;5.10;82.60
55313;DHT22;46892;45.668;11.756;2022-11-25T04:53:21;5.10;82.90
55313;DHT22;46892;45.668;11.756;2022-11-25T04:55:47;5.10;82.90
55313;DHT22;46892;45.668;11.756;2022-11-25T04:58:14;5.30;81.90
55313;DHT22;46892;45.668;11.756;2022-11-25T05:00:59;5.20;82.00
55313;DHT22;46892;45.668;11.756;2022-11-25T05:03:25;5.10;82.30
55313;DHT22;46892;45.668;11.756;2022-11-25T05:05:50;5.10;82.40
55313;DHT22;46892;45.668;11.756;2022-11-25T05:08:16;5.30;81.90
55313;DHT22;46892;45.668;11.756;2022-11-25T05:10:42;5.30;81.50
55313;DHT22;46892;45.668;11.756;2022-11-25T05:13:07;5.20;81.80
55313;DHT22;46892;45.668;11.756;2022-11-25T05:15:33;5.20;82.00
55313;DHT22;46892;45.668;11.756;2022-11-25T05:17:58;5.20;81.90
55313;DHT22;46892;45.668;11.756;2022-11-25T05:20:24;5.20;82.00
55313;DHT22;46892;45.668;11.756;2022-11-25T05:22:50;5.20;81.90
55313;DHT22;46892;45.668;11.756;2022-11-25T05:25:15;5.20;82.10
55313;DHT22;46892;45.668;11.756;2022-11-25T05:27:41;5.30;81.80
55313;DHT22;46892;45.668;11.756;2022-11-25T05:30:07;5.30;81.70
55313;DHT22;46892;45.668;11.756;2022-11-25T05:32:33;5.40;81.40
55313;DHT22;46892;45.668;11.756;2022-11-25T05:34:59;5.60;81.00
55313;DHT22;46892;45.668;11.756;2022-11-25T05:37:25;5.70;80.60
55313;DHT22;46892;45.668;11.756;2022-11-25T05:39:50;5.70;80.30
55313;DHT22;46892;45.668;11.756;2022-11-25T05:42:16;5.70;80.40
55313;DHT22;46892;45.668;11.756;2022-11-25T05:44:42;5.80;80.10
55313;DHT22;46892;45.668;11.756;2022-11-25T05:47:08;5.80;80.20
55313;DHT22;46892;45.668;11.756;2022-11-25T05:49:33;5.80;80.10
55313;DHT22;46892;45.668;11.756;2022-11-25T05:51:59;5.90;79.80
55313;DHT22;46892;45.668;11.756;2022-11-25T05:54:25;5.90;79.80
55313;DHT22;46892;45.668;11.756;2022-11-25T05:56:51;5.80;79.70
55313;DHT22;46892;45.668;11.756;2022-11-25T05:59:17;5.80;80.10
55313;DHT22;46892;45.668;11.756;2022-11-25T06:01:42;5.70;80.00
55313;DHT22;46892;45.668;11.756;2022-11-25T06:04:09;5.70;80.10
55313;DHT22;46892;45.668;11.756;2022-11-25T06:06:36;5.90;79.10
55313;DHT22;46892;45.668;11.756;2022-11-25T06:09:01;5.90;79.50
55313;DHT22;46892;45.668;11.756;2022-11-25T06:11:27;5.90;79.60
55313;DHT22;46892;45.668;11.756;2022-11-25T06:13:55;6.00;79.10
55313;DHT22;46892;45.668;11.756;2022-11-25T06:16:22;5.90;78.90
55313;DHT22;46892;45.668;11.756;2022-11-25T06:18:48;5.90;78.30
55313;DHT22;46892;45.668;11.756;2022-11-25T06:21:14;5.90;78.20
55313;DHT22;46892;45.668;11.756;2022-11-25T06:23:40;5.90;78.30
55313;DHT22;46892;45.668;11.756;2022-11-25T06:26:09;6.20;77.40
55313;DHT22;46892;45.668;11.756;2022-11-25T06:28:35;6.20;77.40
55313;DHT22;46892;45.668;11.756;2022-11-25T06:31:10;6.40;76.00
55313;DHT22;46892;45.668;11.756;2022-11-25T06:33:36;6.50;75.30
55313;DHT22;46892;45.668;11.756;2022-11-25T06:36:04;6.30;76.10
55313;DHT22;46892;45.668;11.756;2022-11-25T06:38:30;6.30;75.90
55313;DHT22;46892;45.668;11.756;2022-11-25T06:41:03;6.50;75.50
55313;DHT22;46892;45.668;11.756;2022-11-25T06:43:30;6.60;75.20
55313;DHT22;46892;45.668;11.756;2022-11-25T06:46:01;6.60;74.80
55313;DHT22;46892;45.668;11.756;2022-11-25T06:48:27;6.60;74.90
55313;DHT22;46892;45.668;11.756;2022-11-25T06:51:01;6.70;74.40
55313;DHT22;46892;45.668;11.756;2022-11-25T06:53:28;6.60;74.80
55313;DHT22;46892;45.668;11.756;2022-11-25T06:56:22;6.60;74.70
55313;DHT22;46892;45.668;11.756;2022-11-25T06:58:48;6.60;74.80
55313;DHT22;46892;45.668;11.756;2022-11-25T07:01:19;6.60;74.40
55313;DHT22;46892;45.668;11.756;2022-11-25T07:03:47;6.60;74.50
55313;DHT22;46892;45.668;11.756;2022-11-25T07:06:14;6.60;74.90
55313;DHT22;46892;45.668;11.756;2022-11-25T07:08:41;6.60;74.70
55313;DHT22;46892;45.668;11.756;2022-11-25T07:11:20;6.60;74.50
55313;DHT22;46892;45.668;11.756;2022-11-25T07:13:47;6.70;74.50
55313;DHT22;46892;45.668;11.756;2022-11-25T07:16:13;6.70;74.50
55313;DHT22;46892;45.668;11.756;2022-11-25T07:18:40;6.70;74.30
55313;DHT22;46892;45.668;11.756;2022-11-25T07:21:07;6.70;74.20
55313;DHT22;46892;45.668;11.756;2022-11-25T07:23:35;6.70;74.10
55313;DHT22;46892;45.668;11.756;2022-11-25T07:26:02;6.80;73.90
55313;DHT22;46892;45.668;11.756;2022-11-25T07:28:29;6.80;73.70
55313;DHT22;46892;45.668;11.756;2022-11-25T07:30:54;6.90;73.70
55313;DHT22;46892;45.668;11.756;2022-11-25T07:33:20;6.90;74.00
55313;DHT22;46892;45.668;11.756;2022-11-25T07:35:46;7.00;74.80
55313;DHT22;46892;45.668;11.756;2022-11-25T07:38:11;7.10;74.80
55313;DHT22;46892;45.668;11.756;2022-11-25T07:40:37;7.10;74.80
55313;DHT22;46892;45.668;11.756;2022-11-25T07:43:03;7.10;74.70
55313;DHT22;46892;45.668;11.756;2022-11-25T07:45:28;7.20;74.60
55313;DHT22;46892;45.668;11.756;2022-11-25T07:47:54;7.30;74.70
55313;DHT22;46892;45.668;11.756;2022-11-25T07:50:19;7.30;75.40
55313;DHT22;46892;45.668;11.756;2022-11-25T07:52:45;7.50;74.90
55313;DHT22;46892;45.668;11.756;2022-11-25T07:55:11;7.60;73.40
55313;DHT22;46892;45.668;11.756;2022-11-25T07:57:37;7.60;73.60
55313;DHT22;46892;45.668;11.756;2022-11-25T08:00:03;7.80;74.40
55313;DHT22;46892;45.668;11.756;2022-11-25T08:02:29;8.00;72.30
55313;DHT22;46892;45.668;11.756;2022-11-25T08:04:55;8.30;71.90
55313;DHT22;46892;45.668;11.756;2022-11-25T08:07:20;8.30;72.00
55313;DHT22;46892;45.668;11.756;2022-11-25T08:09:46;8.40;71.50
55313;DHT22;46892;45.668;11.756;2022-11-25T08:12:11;8.50;70.50
55313;DHT22;46892;45.668;11.756;2022-11-25T08:14:37;8.60;70.60
55313;DHT22;46892;45.668;11.756;2022-11-25T08:17:03;8.50;72.30
55313;DHT22;46892;45.668;11.756;2022-11-25T08:19:30;8.50;72.80
55313;DHT22;46892;45.668;11.756;2022-11-25T08:21:56;8.50;72.00
55313;DHT22;46892;45.668;11.756;2022-11-25T08:24:22;8.50;72.00
55313;DHT22;46892;45.668;11.756;2022-11-25T08:26:48;8.60;71.40
55313;DHT22;46892;45.668;11.756;2022-11-25T08:29:16;8.80;71.80
55313;DHT22;46892;45.668;11.756;2022-11-25T08:31:42;8.80;70.70
55313;DHT22;46892;45.668;11.756;2022-11-25T08:34:07;8.90;71.10
55313;DHT22;46892;45.668;11.756;2022-11-25T08:36:34;9.10;70.80
55313;DHT22;46892;45.668;11.756;2022-11-25T08:39:03;9.20;69.70
55313;DHT22;46892;45.668;11.756;2022-11-25T08:41:34;9.30;70.90
55313;DHT22;46892;45.668;11.756;2022-11-25T08:44:02;9.40;70.20
55313;DHT22;46892;45.668;11.756;2022-11-25T08:46:32;9.70;68.70
55313;DHT22;46892;45.668;11.756;2022-11-25T08:49:01;9.90;68.30
55313;DHT22;46892;45.668;11.756;2022-11-25T08:51:29;10.00;67.60
55313;DHT22;46892;45.668;11.756;2022-11-25T08:53:55;10.00;67.10
55313;DHT22;46892;45.668;11.756;2022-11-25T08:56:23;10.10;67.60
55313;DHT22;46892;45.668;11.756;2022-11-25T08:58:49;10.30;67.10
55313;DHT22;46892;45.668;11.756;2022-11-25T09:01:15;10.40;65.90
55313;DHT22;46892;45.668;11.756;2022-11-25T09:03:46;10.40;66.80
55313;DHT22;46892;45.668;11.756;2022-11-25T09:06:14;10.50;67.40
55313;DHT22;46892;45.668;11.756;2022-11-25T09:08:42;10.50;67.90
55313;DHT22;46892;45.668;11.756;2022-11-25T09:11:08;10.50;67.30
55313;DHT22;46892;45.668;11.756;2022-11-25T09:13:34;10.50;67.60
55313;DHT22;46892;45.668;11.756;2022-11-25T09:16:00;10.50;66.40
55313;DHT22;46892;45.668;11.756;2022-11-25T09:18:26;10.60;65.50
55313;DHT22;46892;45.668;11.756;2022-11-25T09:20:55;10.70;67.00
55313;DHT22;46892;45.668;11.756;2022-11-25T09:23:21;10.80;65.60
55313;DHT22;46892;45.668;11.756;2022-11-25T09:25:56;10.90;65.80
55313;DHT22;46892;45.668;11.756;2022-11-25T09:28:23;10.90;65.40
55313;DHT22;46892;45.668;11.756;2022-11-25T09:30:49;10.90;64.60
55313;DHT22;46892;45.668;11.756;2022-11-25T09:33:15;10.90;64.30
55313;DHT22;46892;45.668;11.756;2022-11-25T09:35:41;10.90;65.30
55313;DHT22;46892;45.668;11.756;2022-11-25T09:38:07;10.90;65.50
55313;DHT22;46892;45.668;11.756;2022-11-25T09:54:57;11.20;64.80
55313;DHT22;46892;45.668;11.756;2022-11-25T10:02:38;11.30;66.70
55313;DHT22;46892;45.668;11.756;2022-11-25T10:05:24;11.30;66.60
55313;DHT22;46892;45.668;11.756;2022-11-25T10:07:59;11.30;67.30
55313;DHT22;46892;45.668;11.756;2022-11-25T10:10:29;11.40;65.60
55313;DHT22;46892;45.668;11.756;2022-11-25T10:12:57;11.40;66.90
55313;DHT22;46892;45.668;11.756;2022-11-25T10:15:29;11.40;67.70
55313;DHT22;46892;45.668;11.756;2022-11-25T10:18:02;11.40;68.00
55313;DHT22;46892;45.668;11.756;2022-11-25T10:20:34;11.50;68.50
55313;DHT22;46892;45.668;11.756;2022-11-25T10:23:04;11.50;68.10
55313;DHT22;46892;45.668;11.756;2022-11-25T10:25:36;11.50;69.40
55313;DHT22;46892;45.668;11.756;2022-11-25T10:28:32;11.50;69.60
55313;DHT22;46892;45.668;11.756;2022-11-25T10:31:16;11.50;71.00
55313;DHT22;46892;45.668;11.756;2022-11-25T10:33:51;11.50;70.60
55313;DHT22;46892;45.668;11.756;2022-11-25T10:36:35;11.40;72.20
55313;DHT22;46892;45.668;11.756;2022-11-25T10:39:08;11.50;72.90
55313;DHT22;46892;45.668;11.756;2022-11-25T10:41:55;11.50;71.90
55313;DHT22;46892;45.668;11.756;2022-11-25T10:44:29;11.50;72.10
55313;DHT22;46892;45.668;11.756;2022-11-25T10:49:37;11.40;71.90
55313;DHT22;46892;45.668;11.756;2022-11-25T10:52:12;11.40;71.60
55313;DHT22;46892;45.668;11.756;2022-11-25T10:54:38;11.40;71.40
55313;DHT22;46892;45.668;11.756;2022-11-25T10:57:17;11.40;71.50
55313;DHT22;46892;45.668;11.756;2022-11-25T10:59:54;11.30;71.90
55313;DHT22;46892;45.668;11.756;2022-11-25T11:02:27;11.30;72.10
55313;DHT22;46892;45.668;11.756;2022-11-25T11:07:30;11.30;72.60
55313;DHT22;46892;45.668;11.756;2022-11-25T11:10:36;11.20;73.30
55313;DHT22;46892;45.668;11.756;2022-11-25T11:13:19;11.20;74.10
55313;DHT22;46892;45.668;11.756;2022-11-25T11:15:46;11.10;74.00
55313;DHT22;46892;45.668;11.756;2022-11-25T11:18:27;11.20;74.60
55313;DHT22;46892;45.668;11.756;2022-11-25T11:20:57;11.10;74.60
55313;DHT22;46892;45.668;11.756;2022-11-25T11:23:25;11.10;75.00
55313;DHT22;46892;45.668;11.756;2022-11-25T11:26:06;11.20;75.70
55313;DHT22;46892;45.668;11.756;2022-11-25T11:33:32;11.20;76.30
55313;DHT22;46892;45.668;11.756;2022-11-25T11:41:41;11.30;75.70
55313;DHT22;46892;45.668;11.756;2022-11-25T11:44:36;11.30;75.90
55313;DHT22;46892;45.668;11.756;2022-11-25T11:47:25;11.50;76.20
55313;DHT22;46892;45.668;11.756;2022-11-25T12:04:07;12.00;72.30
55313;DHT22;46892;45.668;11.756;2022-11-25T12:06:37;12.00;72.70
55313;DHT22;46892;45.668;11.756;2022-11-25T12:09:12;12.00;71.60
55313;DHT22;46892;45.668;11.756;2022-11-25T12:11:44;12.00;71.90
55313;DHT22;46892;45.668;11.756;2022-11-25T12:14:36;12.00;72.30
55313;DHT22;46892;45.668;11.756;2022-11-25T12:17:12;12.20;72.50
55313;DHT22;46892;45.668;11.756;2022-11-25T12:20:08;12.20;72.60
55313;DHT22;46892;45.668;11.756;2022-11-25T12:22:52;12.30;72.00
55313;DHT22;46892;45.668;11.756;2022-11-25T12:25:29;12.30;72.20
55313;DHT22;46892;45.668;11.756;2022-11-25T12:30:37;12.30;72.20
55313;DHT22;46892;45.668;11.756;2022-11-25T12:33:18;12.30;72.50
55313;DHT22;46892;45.668;11.756;2022-11-25T12:38:29;12.40;72.50
55313;DHT22;46892;45.668;11.756;2022-11-25T12:41:04;12.40;72.20
55313;DHT22;46892;45.668;11.756;2022-11-25T12:46:21;12.30;71.80
55313;DHT22;46892;45.668;11.756;2022-11-25T12:48:48;12.30;72.30
55313;DHT22;46892;45.668;11.756;2022-11-25T12:56:40;12.30;71.70
55313;DHT22;46892;45.668;11.756;2022-11-25T13:02:14;12.40;72.00
55313;DHT22;46892;45.668;11.756;2022-11-25T13:05:33;12.30;72.90
55313;DHT22;46892;45.668;11.756;2022-11-25T13:10:54;12.30;72.40
55313;DHT22;46892;45.668;11.756;2022-11-25T13:13:53;12.40;72.40
55313;DHT22;46892;45.668;11.756;2022-11-25T13:16:22;12.40;72.80
55313;DHT22;46892;45.668;11.756;2022-11-25T13:18:49;12.40;72.00
55313;DHT22;46892;45.668;11.756;2022-11-25T13:21:17;12.40;72.30
55313;DHT22;46892;45.668;11.756;2022-11-25T13:23:47;12.40;72.20
55313;DHT22;46892;45.668;11.756;2022-11-25T13:28:55;12.40;72.80
55313;DHT22;46892;45.668;11.756;2022-11-25T13:31:32;12.40;72.70
55313;DHT22;46892;45.668;11.756;2022-11-25T13:36:58;12.40;72.50
55313;DHT22;46892;45.668;11.756;2022-11-25T13:39:34;12.40;72.80
55313;DHT22;46892;45.668;11.756;2022-11-25T13:42:23;12.40;72.40
55313;DHT22;46892;45.668;11.756;2022-11-25T13:44:54;12.40;72.80
55313;DHT22;46892;45.668;11.756;2022-11-25T13:47:39;12.40;73.10
55313;DHT22;46892;45.668;11.756;2022-11-25T13:50:21;12.30;72.80
55313;DHT22;46892;45.668;11.756;2022-11-25T13:57:45;12.30;72.40
55313;DHT22;46892;45.668;11.756;2022-11-25T14:02:44;12.20;73.30
55313;DHT22;46892;45.668;11.756;2022-11-25T14:24:48;12.00;73.80
55313;DHT22;46892;45.668;11.756;2022-11-25T14:27:18;11.90;74.40
55313;DHT22;46892;45.668;11.756;2022-11-25T14:30:05;11.80;74.70
55313;DHT22;46892;45.668;11.756;2022-11-25T14:38:12;11.70;75.40
55313;DHT22;46892;45.668;11.756;2022-11-25T14:41:07;11.70;75.10
55313;DHT22;46892;45.668;11.756;2022-11-25T14:43:44;11.70;75.00
55313;DHT22;46892;45.668;11.756;2022-11-25T14:46:13;11.60;75.10
55313;DHT22;46892;45.668;11.756;2022-11-25T14:48:40;11.60;75.40
55313;DHT22;46892;45.668;11.756;2022-11-25T14:51:09;11.40;75.70
55313;DHT22;46892;45.668;11.756;2022-11-25T14:53:46;11.30;76.00
55313;DHT22;46892;45.668;11.756;2022-11-25T14:56:15;11.30;76.40
55313;DHT22;46892;45.668;11.756;2022-11-25T14:58:44;11.30;76.40
55313;DHT22;46892;45.668;11.756;2022-11-25T15:01:37;11.30;76.20
55313;DHT22;46892;45.668;11.756;2022-11-25T15:06:42;11.10;77.10
55313;DHT22;46892;45.668;11.756;2022-11-25T15:09:40;11.10;77.10
55313;DHT22;46892;45.668;11.756;2022-11-25T15:12:13;11.10;77.20
55313;DHT22;46892;45.668;11.756;2022-11-25T15:14:42;11.00;78.10
55313;DHT22;46892;45.668;11.756;2022-11-25T15:19:54;10.80;78.50
55313;DHT22;46892;45.668;11.756;2022-11-25T15:22:21;10.80;78.70
55313;DHT22;46892;45.668;11.756;2022-11-25T15:24:47;10.80;78.80
55313;DHT22;46892;45.668;11.756;2022-11-25T15:27:18;10.70;79.00
55313;DHT22;46892;45.668;11.756;2022-11-25T15:29:45;10.60;79.00
55313;DHT22;46892;45.668;11.756;2022-11-25T15:32:26;10.40;78.90
55313;DHT22;46892;45.668;11.756;2022-11-25T15:34:54;10.30;79.20
55313;DHT22;46892;45.668;11.756;2022-11-25T15:37:20;10.20;79.60
55313;DHT22;46892;45.668;11.756;2022-11-25T15:39:47;10.00;79.90
55313;DHT22;46892;45.668;11.756;2022-11-25T15:42:21;9.90;80.00
55313;DHT22;46892;45.668;11.756;2022-11-25T15:44:53;9.80;80.30
55313;DHT22;46892;45.668;11.756;2022-11-25T15:47:23;9.80;80.50
55313;DHT22;46892;45.668;11.756;2022-11-25T15:52:22;9.60;80.80
55313;DHT22;46892;45.668;11.756;2022-11-25T15:54:50;9.50;81.10
55313;DHT22;46892;45.668;11.756;2022-11-25T15:57:22;9.60;81.40
55313;DHT22;46892;45.668;11.756;2022-11-25T16:05:12;9.40;81.40
55313;DHT22;46892;45.668;11.756;2022-11-25T16:13:25;9.30;81.80
55313;DHT22;46892;45.668;11.756;2022-11-25T16:21:24;9.20;81.90
55313;DHT22;46892;45.668;11.756;2022-11-25T16:23:59;9.10;81.60
55313;DHT22;46892;45.668;11.756;2022-11-25T16:26:38;9.00;81.30
55313;DHT22;46892;45.668;11.756;2022-11-25T16:29:18;8.90;81.40
55313;DHT22;46892;45.668;11.756;2022-11-25T16:31:44;9.00;81.70
55313;DHT22;46892;45.668;11.756;2022-11-25T16:34:18;9.00;81.70
55313;DHT22;46892;45.668;11.756;2022-11-25T16:36:44;9.10;81.90
55313;DHT22;46892;45.668;11.756;2022-11-25T16:39:10;9.10;81.50
55313;DHT22;46892;45.668;11.756;2022-11-25T16:41:37;9.10;81.50
55313;DHT22;46892;45.668;11.756;2022-11-25T16:44:19;9.10;81.50
55313;DHT22;46892;45.668;11.756;2022-11-25T16:46:45;9.30;81.10
55313;DHT22;46892;45.668;11.756;2022-11-25T16:49:17;9.40;79.40
55313;DHT22;46892;45.668;11.756;2022-11-25T16:51:43;9.40;78.90
55313;DHT22;46892;45.668;11.756;2022-11-25T16:54:09;9.50;78.20
55313;DHT22;46892;45.668;11.756;2022-11-25T16:56:37;9.50;77.30
55313;DHT22;46892;45.668;11.756;2022-11-25T16:59:04;9.30;76.80
55313;DHT22;46892;45.668;11.756;2022-11-25T17:01:30;9.30;76.70
55313;DHT22;46892;45.668;11.756;2022-11-25T17:03:57;9.30;76.60
55313;DHT22;46892;45.668;11.756;2022-11-25T17:06:25;9.30;76.60
55313;DHT22;46892;45.668;11.756;2022-11-25T17:08:51;9.20;76.40
55313;DHT22;46892;45.668;11.756;2022-11-25T17:11:27;9.10;76.20
55313;DHT22;46892;45.668;11.756;2022-11-25T17:13:55;8.90;76.20
55313;DHT22;46892;45.668;11.756;2022-11-25T17:16:25;8.80;76.30
55313;DHT22;46892;45.668;11.756;2022-11-25T17:18:54;8.80;76.30
55313;DHT22;46892;45.668;11.756;2022-11-25T17:21:21;8.80;76.10
55313;DHT22;46892;45.668;11.756;2022-11-25T17:23:53;8.70;76.40
55313;DHT22;46892;45.668;11.756;2022-11-25T17:28:59;8.40;76.80
55313;DHT22;46892;45.668;11.756;2022-11-25T17:31:28;8.30;77.00
55313;DHT22;46892;45.668;11.756;2022-11-25T17:33:56;8.20;76.60
55313;DHT22;46892;45.668;11.756;2022-11-25T17:36:22;8.20;76.10
55313;DHT22;46892;45.668;11.756;2022-11-25T17:38:48;8.20;75.80
55313;DHT22;46892;45.668;11.756;2022-11-25T17:41:15;8.30;75.10
55313;DHT22;46892;45.668;11.756;2022-11-25T17:43:42;8.30;74.80
55313;DHT22;46892;45.668;11.756;2022-11-25T17:46:12;8.20;75.50
55313;DHT22;46892;45.668;11.756;2022-11-25T17:48:39;8.10;75.70
55313;DHT22;46892;45.668;11.756;2022-11-25T17:51:07;8.20;75.60
55313;DHT22;46892;45.668;11.756;2022-11-25T17:53:34;8.30;75.20
55313;DHT22;46892;45.668;11.756;2022-11-25T17:56:28;8.30;75.00
55313;DHT22;46892;45.668;11.756;2022-11-25T17:58:59;8.30;74.90
55313;DHT22;46892;45.668;11.756;2022-11-25T18:01:25;8.20;75.30
55313;DHT22;46892;45.668;11.756;2022-11-25T18:03:51;8.10;75.70